Time;durP1;ratioP1;P1;durP2;ratioP2;P2;SDS_P1;SDS_P2;PMS_P1;PMS_P2;Temp;Humidity;BMP_temperature;BMP_pressure;BME280_temperature;BME280_humidity;BME280_pressure;Samples;Min_cycle;Max_cycle;Signal;HPM_P1;HPM_P2
2023/10/13 00:00:40;;;;;;;2.60;0.90;;;;;;;9.36;62.20;99891.09;5085123;28;20024;-63
2023/10/13 00:03:14;;;;;;;2.97;1.30;;;;;;;9.38;62.11;99897.09;5085041;28;20452;-64
2023/10/13 00:05:41;;;;;;;3.95;1.17;;;;;;;9.39;62.00;99891.03;5068290;28;20020;-65
2023/10/13 00:08:08;;;;;;;3.83;1.52;;;;;;;9.37;61.95;99891.06;5084923;28;20034;-64
2023/10/13 00:10:33;;;;;;;2.38;0.98;;;;;;;9.31;62.07;99875.59;5066892;28;20020;-63
2023/10/13 00:15:42;;;;;;;2.42;1.38;;;;;;;9.35;62.21;99881.56;5084742;28;20479;-65
2023/10/13 00:18:12;;;;;;;7.50;1.75;;;;;;;9.40;62.18;99890.16;5084649;28;20031;-65
2023/10/13 00:20:49;;;;;;;5.05;0.82;;;;;;;9.42;62.05;99888.41;5085046;28;20024;-65
2023/10/13 00:23:20;;;;;;;3.85;1.40;;;;;;;9.48;62.05;99884.88;5084762;28;20055;-63
2023/10/13 00:25:50;;;;;;;1.33;1.02;;;;;;;9.53;62.03;99890.88;5066955;28;20024;-64
2023/10/13 00:28:23;;;;;;;2.45;1.70;;;;;;;9.54;61.76;99867.53;5084798;28;20572;-64
2023/10/13 00:31:00;;;;;;;9.23;1.88;;;;;;;9.59;61.84;99875.25;5084712;28;20043;-64
2023/10/13 00:33:27;;;;;;;1.08;0.98;;;;;;;9.61;61.65;99870.03;5084656;28;20054;-64
2023/10/13 00:35:52;;;;;;;2.33;1.10;;;;;;;9.63;61.67;99876.91;5066426;28;20091;-63
2023/10/13 00:38:18;;;;;;;6.88;1.52;;;;;;;9.64;61.60;99886.41;5084773;28;20025;-63
2023/10/13 00:40:44;;;;;;;11.90;1.92;;;;;;;9.62;61.70;99875.19;5084620;28;20050;-64
2023/10/13 00:48:33;;;;;;;3.53;2.03;;;;;;;9.58;61.53;99863.19;5086261;28;20107;-64
2023/10/13 00:51:06;;;;;;;2.08;1.33;;;;;;;9.55;61.33;99858.03;5088430;28;20032;-63
2023/10/13 00:53:33;;;;;;;4.70;1.42;;;;;;;9.50;61.42;99844.28;5088222;28;20028;-64
2023/10/13 00:56:07;;;;;;;2.55;1.20;;;;;;;9.40;61.85;99853.88;5070546;28;20046;-64
2023/10/13 00:58:38;;;;;;;2.70;1.60;;;;;;;9.35;62.59;99853.94;5088165;28;20047;-63
2023/10/13 01:01:27;;;;;;;5.38;1.50;;;;;;;9.39;62.30;99847.00;5088496;28;20020;-64
2023/10/13 01:03:55;;;;;;;14.27;1.40;;;;;;;9.39;62.42;99853.03;5088501;28;20028;-63
2023/10/13 01:06:25;;;;;;;3.72;1.42;;;;;;;9.47;62.37;99855.53;5069927;28;20028;-64
2023/10/13 01:08:57;;;;;;;6.53;2.25;;;;;;;9.55;62.31;99864.06;5088153;28;20035;-63
2023/10/13 01:11:23;;;;;;;6.43;1.08;;;;;;;9.57;62.30;99856.25;5088240;28;20102;-64
2023/10/13 01:13:51;;;;;;;10.38;1.42;;;;;;;9.68;62.46;99866.47;5088063;28;20025;-64
2023/10/13 01:16:23;;;;;;;2.50;0.75;;;;;;;9.75;62.28;99867.25;5087921;28;20045;-64
2023/10/13 01:18:49;;;;;;;2.92;2.10;;;;;;;9.76;62.32;99869.00;5069942;28;20025;-64
2023/10/13 01:21:25;;;;;;;7.97;1.00;;;;;;;9.71;62.50;99866.47;5087764;28;20032;-64
2023/10/13 01:23:52;;;;;;;8.68;1.40;;;;;;;9.69;62.48;99856.97;5087763;28;20017;-64
2023/10/13 01:26:23;;;;;;;7.05;1.05;;;;;;;9.66;62.63;99860.47;5086639;28;20016;-63
2023/10/13 01:28:50;;;;;;;3.72;1.75;;;;;;;9.70;62.81;99861.28;5087898;28;20035;-64
2023/10/13 01:31:26;;;;;;;8.48;1.42;;;;;;;9.66;62.94;99870.84;5087819;28;20052;-64
2023/10/13 01:33:54;;;;;;;6.85;1.48;;;;;;;9.64;63.13;99878.63;5087048;28;20032;-64
2023/10/13 01:36:22;;;;;;;3.38;1.13;;;;;;;9.56;63.54;99867.50;5087678;28;20028;-63
2023/10/13 01:38:48;;;;;;;14.23;2.08;;;;;;;9.53;63.59;99868.41;5087625;28;20549;-64
2023/10/13 01:41:14;;;;;;;4.72;1.67;;;;;;;9.49;63.63;99860.72;5087771;28;20032;-64
2023/10/13 01:43:40;;;;;;;4.63;1.13;;;;;;;9.46;63.86;99865.91;5087837;28;20013;-64
2023/10/13 01:46:05;;;;;;;4.75;1.77;;;;;;;9.46;64.05;99884.03;5087342;28;20079;-63
2023/10/13 01:48:38;;;;;;;1.52;1.27;;;;;;;9.41;63.97;99871.13;5087607;28;20024;-64
2023/10/13 01:51:05;;;;;;;11.25;1.75;;;;;;;9.47;64.15;99873.69;5087268;28;20040;-64
2023/10/13 01:53:31;;;;;;;4.97;1.58;;;;;;;9.50;64.32;99860.69;5087210;28;20372;-64
2023/10/13 01:55:59;;;;;;;4.60;1.27;;;;;;;9.55;63.91;99855.44;5087736;28;20020;-65
2023/10/13 01:58:28;;;;;;;8.23;2.63;;;;;;;9.60;63.98;99856.22;5087143;28;20032;-64
2023/10/13 02:00:56;;;;;;;2.88;1.63;;;;;;;9.63;63.80;99860.53;5086021;28;20031;-64
2023/10/13 02:03:22;;;;;;;6.80;1.02;;;;;;;9.68;63.25;99861.28;5069056;28;20012;-63
2023/10/13 02:05:49;;;;;;;4.60;1.67;;;;;;;9.63;63.21;99847.56;5087011;28;20031;-64
2023/10/13 02:08:18;;;;;;;6.15;1.55;;;;;;;9.67;62.66;99844.03;5086954;28;20358;-63
2023/10/13 02:10:45;;;;;;;3.58;1.13;;;;;;;9.68;62.87;99845.75;5086865;28;20027;-63
2023/10/13 02:13:17;;;;;;;7.53;1.65;;;;;;;9.71;62.86;99835.34;5086969;28;20032;-65
2023/10/13 02:15:53;;;;;;;1.58;0.93;;;;;;;9.75;62.78;99834.44;5068778;28;20035;-64
2023/10/13 02:18:26;;;;;;;3.38;1.33;;;;;;;9.78;62.50;99829.19;5087050;28;20024;-64
2023/10/13 02:21:04;;;;;;;8.13;1.42;;;;;;;9.82;62.38;99822.25;5086698;28;20021;-65
2023/10/13 02:23:29;;;;;;;6.30;1.75;;;;;;;9.79;62.24;99817.09;5086343;28;20016;-64
2023/10/13 02:26:03;;;;;;;11.88;1.58;;;;;;;9.83;62.04;99820.47;5086903;28;20032;-64
2023/10/13 02:28:33;;;;;;;7.07;1.58;;;;;;;9.78;62.15;99815.38;5068516;28;20525;-64
2023/10/13 02:31:03;;;;;;;3.70;0.93;;;;;;;9.83;62.27;99815.28;5086799;28;20029;-64
2023/10/13 02:33:32;;;;;;;2.28;0.55;;;;;;;9.79;62.47;99807.56;5068671;28;20029;-63
2023/10/13 02:36:04;;;;;;;0.50;0.50;;;;;;;9.86;62.38;99802.28;5068579;28;20021;-64
2023/10/13 02:41:05;;;;;;;1.52;0.88;;;;;;;9.90;62.20;99798.78;5086795;28;20028;-63
2023/10/13 02:43:40;;;;;;;6.70;1.63;;;;;;;9.89;62.14;99795.31;5086511;28;20036;-64
2023/10/13 02:46:06;;;;;;;2.47;0.85;;;;;;;9.92;62.06;99784.91;5086244;28;20112;-63
2023/10/13 02:48:41;;;;;;;1.85;1.05;;;;;;;9.96;61.77;99783.13;5086349;28;20043;-64
2023/10/13 02:51:17;;;;;;;2.00;0.93;;;;;;;10.03;61.39;99787.31;5068167;28;20028;-63
2023/10/13 02:53:49;;;;;;;12.15;1.40;;;;;;;10.04;61.37;99783.00;5086109;28;20060;-64
2023/10/13 02:56:20;;;;;;;10.68;1.85;;;;;;;10.12;61.42;99788.06;5086631;28;20353;-64
2023/10/13 02:58:53;;;;;;;8.18;1.35;;;;;;;10.17;61.39;99804.41;5086073;28;20024;-65
2023/10/13 03:01:20;;;;;;;5.40;1.42;;;;;;;10.17;61.26;99802.66;5086406;28;20115;-64
2023/10/13 03:03:54;;;;;;;2.92;1.30;;;;;;;10.19;60.85;99801.78;5086145;28;20019;-64
2023/10/13 03:06:31;;;;;;;10.82;1.48;;;;;;;10.20;61.01;99800.91;5068214;28;20499;-65
2023/10/13 03:09:19;;;;;;;6.53;1.50;;;;;;;10.23;60.93;99790.47;5086386;28;20034;-64
2023/10/13 03:11:48;;;;;;;3.97;0.68;;;;;;;10.21;61.07;99779.28;5085681;28;20028;-64
2023/10/13 03:14:30;;;;;;;1.15;0.95;;;;;;;10.19;61.36;99773.25;5085943;28;20084;-63
2023/10/13 03:17:09;;;;;;;8.38;1.15;;;;;;;10.25;61.30;99770.56;5067737;28;20016;-64
2023/10/13 03:19:36;;;;;;;5.43;1.85;;;;;;;10.24;61.08;99763.66;5085940;28;20099;-64
2023/10/13 03:22:09;;;;;;;6.88;1.77;;;;;;;10.29;61.50;99770.47;5085949;28;20050;-64
2023/10/13 03:24:44;;;;;;;2.00;1.08;;;;;;;10.28;61.35;99755.81;5085349;28;20020;-64
2023/10/13 03:27:11;;;;;;;0.88;0.80;;;;;;;10.29;61.55;99767.00;5067705;28;20024;-63
2023/10/13 03:29:42;;;;;;;4.18;1.05;;;;;;;10.30;61.40;99763.56;5085498;28;20017;-64
2023/10/13 03:32:11;;;;;;;14.95;2.03;;;;;;;10.29;61.47;99747.13;5085541;28;20103;-63
2023/10/13 03:34:41;;;;;;;5.20;1.45;;;;;;;10.31;61.38;99754.00;5067214;28;20035;-64
2023/10/13 03:37:18;;;;;;;4.22;1.33;;;;;;;10.26;61.40;99741.13;5085530;28;20107;-65
2023/10/13 03:39:45;;;;;;;1.67;1.05;;;;;;;10.29;61.43;99741.06;5085264;28;20025;-64
2023/10/13 03:42:18;;;;;;;5.32;1.20;;;;;;;10.29;61.52;99735.88;5085499;28;20017;-64
2023/10/13 03:44:46;;;;;;;8.27;1.73;;;;;;;10.26;61.24;99739.41;5085073;28;20036;-65
2023/10/13 03:47:26;;;;;;;6.32;1.73;;;;;;;10.23;61.33;99738.59;5085497;28;20036;-63
2023/10/13 03:50:16;;;;;;;7.20;1.27;;;;;;;10.19;61.32;99726.56;5085328;28;20099;-63
2023/10/13 03:52:41;;;;;;;1.08;0.93;;;;;;;10.22;60.90;99723.91;5084385;28;20043;-64
2023/10/13 03:55:08;;;;;;;3.10;1.13;;;;;;;10.21;60.97;99715.25;5063523;28;20025;-64
2023/10/13 03:57:34;;;;;;;1.25;0.68;;;;;;;10.17;61.13;99714.47;5081483;28;20032;-64
2023/10/13 04:00:08;;;;;;;2.97;1.08;;;;;;;10.26;60.76;99720.38;5085149;28;20058;-64
2023/10/13 04:02:33;;;;;;;5.20;2.40;;;;;;;10.25;60.87;99714.34;5085224;28;20036;-64
2023/10/13 04:05:07;;;;;;;1.55;0.82;;;;;;;10.25;60.85;99708.28;5084965;28;20028;-64
2023/10/13 04:27:15;;;;;;;9.65;1.45;;;;;;;10.37;63.49;99676.91;5002830;28;20041;-63
2023/10/13 04:29:45;;;;;;;3.67;1.55;;;;;;;10.37;63.68;99676.91;5003066;28;20038;-64
2023/10/13 04:32:13;;;;;;;7.18;2.25;;;;;;;10.42;63.59;99676.84;5003022;28;20034;-64
2023/10/13 04:34:39;;;;;;;3.80;0.82;;;;;;;10.40;63.67;99676.00;5003203;28;20104;-64
2023/10/13 04:39:56;;;;;;;9.35;1.25;;;;;;;10.43;63.57;99675.09;5002838;28;20026;-63
2023/10/13 04:42:39;;;;;;;5.13;1.73;;;;;;;10.43;63.55;99662.13;5002988;28;20245;-65
2023/10/13 04:45:27;;;;;;;4.93;0.88;;;;;;;10.46;63.16;99655.19;5084705;28;20047;-64
2023/10/13 04:47:57;;;;;;;14.80;3.33;;;;;;;10.48;63.22;99662.94;5084662;28;20097;-65
2023/10/13 04:50:27;;;;;;;3.90;1.35;;;;;;;10.52;63.16;99652.44;5084439;28;20515;-64
2023/10/13 04:53:02;;;;;;;2.63;1.10;;;;;;;10.49;62.95;99655.13;5084571;28;20081;-64
2023/10/13 04:55:48;;;;;;;6.40;1.27;;;;;;;10.54;62.90;99647.22;5083023;28;20059;-63
2023/10/13 04:58:46;;;;;;;9.55;1.70;;;;;;;10.56;62.96;99622.09;5084674;28;20083;-65
2023/10/13 05:01:23;;;;;;;1.10;0.90;;;;;;;10.53;62.67;99630.78;5084328;28;20025;-64
2023/10/13 05:44:56;;;;;;;2.83;1.17;;;;;;;10.74;62.17;99560.28;5087302;28;20047;-65
2023/10/13 05:47:46;;;;;;;6.10;1.85;;;;;;;10.73;62.06;99553.38;5087756;28;20033;-65
2023/10/13 06:28:40;;;;;;;1.35;0.90;;;;;;;11.09;59.02;99516.16;5086954;28;20100;-65
2023/10/13 06:31:12;;;;;;;4.68;1.77;;;;;;;11.10;59.17;99521.31;5085843;28;20088;-64
2023/10/13 06:33:45;;;;;;;;;;;;;;;11.17;58.84;99516.00;5087261;28;20029;-65
2023/10/13 06:36:10;;;;;;;2.75;1.42;;;;;;;11.14;58.78;99519.50;5086604;28;19931;-65
2023/10/13 06:38:36;;;;;;;5.22;0.95;;;;;;;11.12;58.45;99516.09;5086691;28;20416;-65
2023/10/13 06:41:05;;;;;;;2.17;0.88;;;;;;;11.07;58.25;99513.59;5086485;28;20031;-65
2023/10/13 06:43:43;;;;;;;7.22;1.35;;;;;;;11.10;57.91;99515.28;5086509;28;20017;-66
2023/10/13 06:46:15;;;;;;;4.47;1.40;;;;;;;11.17;58.12;99516.00;5085328;28;20119;-65
2023/10/13 06:48:41;;;;;;;;;;;;;;;11.20;57.29;99510.72;5086829;28;20035;-65
2023/10/13 06:51:17;;;;;;;15.00;1.77;;;;;;;11.18;57.64;99508.16;5068246;28;19909;-66
2023/10/13 06:53:47;;;;;;;3.70;1.25;;;;;;;11.17;57.54;99500.41;5085927;28;20092;-65
2023/10/13 06:56:16;;;;;;;1.75;0.75;;;;;;;11.23;57.03;99514.06;5086197;28;20428;-65
2023/10/13 06:58:44;;;;;;;0.90;0.70;;;;;;;11.23;56.76;99505.44;5085438;28;20020;-65
2023/10/13 07:01:14;;;;;;;5.15;1.60;;;;;;;11.28;56.59;99501.81;5086088;28;20024;-65
2023/10/13 07:03:41;;;;;;;4.88;1.10;;;;;;;11.35;56.79;99504.25;5085757;28;20020;-66
2023/10/13 07:06:11;;;;;;;0.57;0.57;;;;;;;11.31;56.31;99497.44;5085789;28;20528;-65
2023/10/13 07:08:37;;;;;;;1.70;1.27;;;;;;;11.38;55.88;99488.59;5086373;28;20021;-65
2023/10/13 07:11:05;;;;;;;5.05;1.35;;;;;;;11.39;56.08;99491.16;5085689;28;20034;-65
2023/10/13 07:13:31;;;;;;;8.25;1.08;;;;;;;11.41;56.22;99488.50;5085804;28;20052;-64
2023/10/13 07:16:01;;;;;;;2.53;1.00;;;;;;;11.43;56.31;99484.13;5085907;28;20031;-65
2023/10/13 07:18:35;;;;;;;8.65;1.13;;;;;;;11.47;56.20;99480.53;5086078;28;20058;-64
2023/10/13 07:21:09;;;;;;;5.88;1.23;;;;;;;11.42;56.02;99460.78;5085804;28;20021;-65
2023/10/13 07:23:35;;;;;;;2.80;1.13;;;;;;;11.49;56.17;99470.09;5085952;28;20020;-65
2023/10/13 07:26:04;;;;;;;1.17;0.73;;;;;;;11.55;55.52;99467.34;5085644;28;20020;-65
2023/10/13 07:28:36;;;;;;;2.45;0.98;;;;;;;11.60;54.76;99449.88;5085583;28;20055;-65
2023/10/13 07:33:31;;;;;;;1.52;0.82;;;;;;;11.59;53.79;99445.56;5085508;28;19915;-65
2023/10/13 07:36:09;;;;;;;6.70;1.40;;;;;;;11.53;53.36;99435.34;5085656;28;20032;-66
2023/10/13 07:38:37;;;;;;;3.80;1.13;;;;;;;11.68;53.30;99441.03;5085685;28;20035;-67
2023/10/13 07:41:08;;;;;;;2.15;0.70;;;;;;;11.81;53.51;99433.69;5085218;28;20107;-65
2023/10/13 07:43:34;;;;;;;1.27;0.80;;;;;;;11.85;53.36;99424.91;5085588;28;20018;-64
2023/10/13 07:46:06;;;;;;;1.33;1.05;;;;;;;11.92;53.48;99423.00;5085072;28;20094;-64
2023/10/13 07:48:33;;;;;;;2.15;0.85;;;;;;;12.02;53.39;99424.41;5085262;28;20017;-66
2023/10/13 07:51:15;;;;;;;2.95;0.88;;;;;;;12.07;53.82;99416.47;5083757;28;20024;-61
2023/10/13 07:53:43;;;;;;;9.75;1.25;;;;;;;12.10;53.79;99419.00;5085140;28;20052;-64
2023/10/13 07:56:11;;;;;;;3.45;1.48;;;;;;;12.18;53.67;99410.94;5085088;28;20031;-65
2023/10/13 07:58:47;;;;;;;7.82;1.58;;;;;;;12.16;54.18;99405.78;5067052;28;20030;-66
2023/10/13 08:01:17;;;;;;;2.08;0.88;;;;;;;12.15;54.09;99396.31;5085222;28;20106;-65
2023/10/13 08:03:45;;;;;;;9.25;1.92;;;;;;;12.13;54.34;99390.28;5084963;28;20500;-65
2023/10/13 08:08:39;;;;;;;1.63;1.00;;;;;;;12.11;54.67;99392.94;5085289;28;20031;-64
2023/10/13 08:11:24;;;;;;;3.00;0.75;;;;;;;12.07;55.14;99382.63;5084736;28;20473;-66
2023/10/13 08:13:54;;;;;;;6.07;1.15;;;;;;;11.99;55.42;99375.06;5084941;28;20283;-66
2023/10/13 08:16:24;;;;;;;3.58;1.05;;;;;;;11.85;56.08;99355.53;5066417;28;20032;-65
2023/10/13 08:18:50;;;;;;;1.05;1.05;;;;;;;11.96;56.48;99369.97;5085134;28;20028;-66
2023/10/13 08:21:17;;;;;;;1.63;1.05;;;;;;;11.85;56.73;99347.72;5084840;28;20047;-64
2023/10/13 08:34:59;;;;;;;1.23;0.52;;;;;;;11.92;59.09;99316.34;5084749;28;20495;-66
2023/10/13 08:48:14;;;;;;;1.95;1.50;;;;;;;11.91;60.60;99284.28;5084537;28;20476;-66
2023/10/13 09:04:44;;;;;;;3.78;1.52;;;;;;;12.24;60.79;99259.84;5084458;28;20380;-66
2023/10/13 09:12:14;;;;;;;3.95;0.85;;;;;;;12.29;60.94;99225.84;5088594;28;19908;-66
2023/10/13 09:14:44;;;;;;;3.03;1.45;;;;;;;12.34;61.02;99227.41;5088114;28;20017;-65
2023/10/13 09:17:34;;;;;;;3.97;1.65;;;;;;;12.59;60.25;99223.06;5088201;28;20472;-65
2023/10/13 09:25:35;;;;;;;0.50;0.43;;;;;;;12.17;61.99;99193.31;5087864;28;20391;-65
2023/10/13 09:28:14;;;;;;;1.75;0.90;;;;;;;12.19;62.35;99183.72;5088174;28;20020;-66
2023/10/13 09:30:47;;;;;;;1.85;0.60;;;;;;;12.51;61.34;99177.34;5087840;28;20016;-65
2023/10/13 09:33:16;;;;;;;1.75;0.70;;;;;;;12.24;62.13;99176.56;5087950;28;20050;-63
2023/10/13 09:35:49;;;;;;;4.05;0.98;;;;;;;12.05;62.65;99168.53;5087932;28;20016;-64
2023/10/13 09:38:17;;;;;;;16.27;0.95;;;;;;;12.02;63.16;99162.53;5088129;28;20024;-66
2023/10/13 09:40:49;;;;;;;3.58;1.35;;;;;;;12.15;62.83;99154.34;5087528;28;20016;-66
2023/10/13 09:43:17;;;;;;;;;;;;;;;12.15;62.61;99146.53;5088589;28;20098;-64
2023/10/13 09:46:07;;;;;;;2.20;1.33;;;;;;;11.93;63.10;99138.59;5087529;28;19923;-65
2023/10/13 09:48:33;;;;;;;2.40;1.40;;;;;;;11.88;63.75;99134.41;5087877;28;20020;-65
2023/10/13 09:51:08;;;;;;;4.43;1.23;;;;;;;11.76;64.02;99125.25;5087367;28;20036;-65
2023/10/13 09:53:37;;;;;;;3.40;1.60;;;;;;;11.71;64.61;99126.34;5087628;28;20027;-65
2023/10/13 09:56:23;;;;;;;3.95;1.77;;;;;;;11.51;65.20;99107.91;5069512;28;20024;-66
2023/10/13 09:59:00;;;;;;;12.15;2.25;;;;;;;11.48;65.40;99101.97;5087730;28;20020;-66
2023/10/13 10:01:31;;;;;;;0.30;0.30;;;;;;;11.56;65.38;99094.75;5087676;28;20076;-65
2023/10/13 10:04:17;;;;;;;0.30;0.30;;;;;;;11.82;64.68;99080.00;5086159;28;20027;-66
2023/10/13 10:06:56;;;;;;;0.43;0.43;;;;;;;11.42;66.48;99083.97;5087510;28;20036;-67
2023/10/13 10:09:43;;;;;;;0.30;0.30;;;;;;;11.05;67.85;99076.47;5087347;28;20331;-65
2023/10/13 10:12:36;;;;;;;0.45;0.45;;;;;;;11.40;66.91;99066.69;5087178;28;20033;-66
2023/10/13 10:15:30;;;;;;;2.05;1.00;;;;;;;11.17;67.95;99053.63;5087434;28;20031;-64
2023/10/13 10:17:56;;;;;;;8.07;1.42;;;;;;;11.00;68.29;99031.63;5087532;28;20020;-64
2023/10/13 10:20:44;;;;;;;3.65;1.13;;;;;;;10.91;69.04;99036.22;5084887;28;20025;-65
2023/10/13 10:23:12;;;;;;;0.30;0.30;;;;;;;10.76;69.27;99015.94;5087066;28;20017;-65
2023/10/13 10:25:38;;;;;;;1.15;0.80;;;;;;;10.85;69.12;99019.97;5086909;28;20021;-64
2023/10/13 10:28:05;;;;;;;0.40;0.40;;;;;;;10.83;69.63;99007.03;5087111;28;20028;-64
2023/10/13 10:30:41;;;;;;;0.30;0.30;;;;;;;10.83;69.50;98975.88;5086955;28;20025;-66
2023/10/13 10:33:12;;;;;;;0.68;0.60;;;;;;;11.00;68.69;98969.31;5087042;28;20052;-65
2023/10/13 10:35:39;;;;;;;0.35;0.35;;;;;;;10.63;69.91;98969.59;5086569;28;20025;-65
2023/10/13 10:38:13;;;;;;;0.70;0.70;;;;;;;10.58;70.21;98947.28;5068990;28;20024;-65
2023/10/13 10:41:00;;;;;;;0.40;0.40;;;;;;;10.48;71.06;98934.59;5086550;28;20027;-65
2023/10/13 10:43:43;;;;;;;1.30;1.10;;;;;;;10.55;71.21;98935.25;5068767;28;20092;-65
2023/10/13 10:46:13;;;;;;;0.90;0.63;;;;;;;10.81;70.61;98923.19;5085895;28;20048;-63
2023/10/13 10:48:42;;;;;;;0.65;0.65;;;;;;;10.46;71.89;98923.44;5086730;28;20024;-63
2023/10/13 10:51:14;;;;;;;0.30;0.30;;;;;;;10.57;71.98;98910.13;5086442;28;20074;-64
2023/10/13 10:53:46;;;;;;;;;;;;;;;10.76;71.75;98904.31;5086858;28;20185;-64
2023/10/13 10:56:25;;;;;;;0.68;0.68;;;;;;;10.57;72.25;98897.16;5086232;28;19930;-64
2023/10/13 10:58:59;;;;;;;8.82;2.38;;;;;;;10.33;73.30;98885.78;5068349;28;20024;-64
2023/10/13 11:01:33;;;;;;;1.75;0.60;;;;;;;10.13;74.24;98875.13;5086389;28;20020;-64
2023/10/13 11:04:14;;;;;;;7.22;1.23;;;;;;;10.12;74.78;98876.03;5086289;28;20020;-64
2023/10/13 11:06:46;;;;;;;3.67;1.55;;;;;;;10.30;74.01;98860.78;5086237;28;20042;-65
2023/10/13 11:09:18;;;;;;;0.70;0.68;;;;;;;10.44;73.61;98854.28;5085606;28;20024;-65
2023/10/13 11:11:52;;;;;;;4.70;1.02;;;;;;;10.46;73.58;98847.31;5086089;28;20036;-63
2023/10/13 11:14:24;;;;;;;1.65;1.38;;;;;;;10.35;74.28;98839.88;5085904;28;20073;-64
2023/10/13 11:16:53;;;;;;;2.67;1.55;;;;;;;10.20;74.91;98823.06;5085784;28;20055;-64
2023/10/13 11:19:20;;;;;;;1.15;0.82;;;;;;;10.08;75.64;98817.38;5085957;28;20361;-64
2023/10/13 11:21:49;;;;;;;0.60;0.60;;;;;;;10.37;75.16;98807.81;5085602;28;20028;-63
2023/10/13 11:24:17;;;;;;;13.70;1.48;;;;;;;9.91;76.86;98792.00;5085425;28;20020;-64
2023/10/13 11:26:49;;;;;;;0.35;0.35;;;;;;;10.11;76.81;98777.56;5086067;28;20052;-64
2023/10/13 11:29:19;;;;;;;4.40;1.95;;;;;;;10.17;76.37;98762.63;5085651;28;20028;-63
2023/10/13 11:31:58;;;;;;;1.40;1.30;;;;;;;10.15;77.16;98753.19;5085263;28;20086;-64
2023/10/13 11:34:23;;;;;;;0.30;0.30;;;;;;;9.81;78.29;98749.13;5085537;28;20024;-66
2023/10/13 11:36:49;;;;;;;0.60;0.60;;;;;;;10.04;78.42;98751.81;5085518;28;20035;-66
2023/10/13 11:39:23;;;;;;;0.30;0.30;;;;;;;9.72;79.33;98742.47;5085078;28;20388;-65
2023/10/13 11:41:54;;;;;;;0.30;0.30;;;;;;;9.62;80.65;98714.28;5084294;28;20044;-64
2023/10/13 11:49:18;;;;;;;0.30;0.30;;;;;;;9.63;81.50;98697.00;5085490;28;20107;-63
2023/10/13 11:51:47;;;;;;;0.55;0.47;;;;;;;9.54;82.72;98691.22;5084836;28;20473;-63
2023/10/13 11:54:21;;;;;;;0.80;0.80;;;;;;;9.52;82.90;98693.00;5084505;28;20074;-63
2023/10/13 11:56:48;;;;;;;0.30;0.30;;;;;;;9.51;83.15;98664.53;5085571;28;20047;-62
2023/10/13 11:59:24;;;;;;;0.50;0.50;;;;;;;9.46;84.39;98662.09;5085251;28;20093;-64
2023/10/13 12:07:20;;;;;;;0.73;0.73;;;;;;;9.40;86.27;98641.59;5085273;28;20032;-62
2023/10/13 12:12:18;;;;;;;0.65;0.55;;;;;;;9.27;87.62;98613.50;5085134;28;20225;-65
2023/10/13 12:14:55;;;;;;;3.00;1.52;;;;;;;9.32;87.83;98602.97;5084988;28;20090;-65
2023/10/13 12:17:31;;;;;;;0.40;0.40;;;;;;;9.28;88.82;98585.88;5083826;28;20465;-65
2023/10/13 12:19:57;;;;;;;1.33;0.73;;;;;;;9.23;89.48;98578.25;5085013;28;20032;-66
2023/10/13 12:22:35;;;;;;;0.40;0.40;;;;;;;9.24;89.79;98568.72;5085006;28;20020;-66
2023/10/13 12:25:04;;;;;;;0.38;0.38;;;;;;;9.44;89.17;98559.44;5084812;28;20027;-67
2023/10/13 12:27:45;;;;;;;0.38;0.38;;;;;;;9.31;90.53;98544.34;5084890;28;20055;-69
2023/10/13 12:30:13;;;;;;;4.22;1.30;;;;;;;9.26;91.17;98530.69;5084985;28;20020;-67
2023/10/13 12:32:44;;;;;;;7.10;1.42;;;;;;;9.24;91.37;98517.78;5066795;28;20023;-66
2023/10/13 12:51:19;;;;;;;1.38;0.75;;;;;;;9.27;93.27;98423.59;5088851;28;20051;-67
2023/10/13 12:53:49;;;;;;;0.30;0.30;;;;;;;9.39;93.26;98422.34;5088700;28;20027;-67
2023/10/13 12:56:16;;;;;;;0.30;0.30;;;;;;;9.75;91.27;98397.72;5088788;28;20070;-70
2023/10/13 12:58:42;;;;;;;0.65;0.65;;;;;;;9.44;92.73;98388.50;5088619;28;20372;-67
2023/10/13 13:01:08;;;;;;;0.77;0.77;;;;;;;9.37;93.43;98380.09;5088609;28;20043;-70
2023/10/13 13:03:34;;;;;;;0.32;0.32;;;;;;;9.38;93.80;98361.94;5088761;28;20101;-70
2023/10/13 13:06:03;;;;;;;0.30;0.30;;;;;;;9.26;94.82;98352.03;5088842;28;20028;-69
2023/10/13 13:08:35;;;;;;;1.75;0.60;;;;;;;9.35;94.87;98328.38;5070639;28;20024;-69
2023/10/13 13:11:01;;;;;;;0.73;0.73;;;;;;;9.50;94.42;98318.34;5088263;28;20074;-70
2023/10/13 13:13:26;;;;;;;4.78;0.70;;;;;;;9.43;94.23;98304.78;5088545;28;20059;-70
2023/10/13 13:15:52;;;;;;;0.30;0.30;;;;;;;9.32;94.80;98281.88;5088324;28;20020;-71
2023/10/13 13:18:19;;;;;;;0.50;0.50;;;;;;;9.26;96.17;98284.69;5088342;28;20028;-70
2023/10/13 13:20:53;;;;;;;0.30;0.30;;;;;;;9.35;96.69;98271.41;5088373;28;20092;-69
2023/10/13 13:23:19;;;;;;;0.30;0.30;;;;;;;9.58;96.03;98246.38;5088300;28;20028;-70
2023/10/13 13:25:45;;;;;;;0.32;0.32;;;;;;;9.53;95.60;98232.75;5088023;28;20023;-70
2023/10/13 13:28:11;;;;;;;1.30;0.40;;;;;;;9.46;96.34;98215.75;5088067;28;20032;-69
2023/10/13 13:30:37;;;;;;;0.40;0.40;;;;;;;9.57;96.02;98190.25;5088158;28;20029;-70
2023/10/13 13:33:10;;;;;;;0.30;0.30;;;;;;;9.64;96.62;98181.34;5069921;28;20070;-71
2023/10/13 13:35:48;;;;;;;0.68;0.55;;;;;;;9.51;96.85;98164.59;5088089;28;20024;-70
2023/10/13 13:38:22;;;;;;;0.30;0.30;;;;;;;9.55;97.35;98153.25;5087948;28;20032;-70
2023/10/13 13:40:53;;;;;;;1.17;0.65;;;;;;;9.48;98.15;98141.41;5069649;28;20050;-72
2023/10/13 13:43:35;;;;;;;0.40;0.40;;;;;;;9.61;98.08;98137.44;5069723;28;20020;-71
2023/10/13 13:46:02;;;;;;;0.30;0.30;;;;;;;9.56;97.91;98113.47;5069567;28;20063;-71
2023/10/13 13:48:28;;;;;;;0.60;0.60;;;;;;;9.66;98.04;98101.81;5087770;28;20033;-72
2023/10/13 13:51:03;;;;;;;0.30;0.30;;;;;;;9.71;97.95;98088.69;5087581;28;20028;-70
2023/10/13 13:53:31;;;;;;;0.30;0.30;;;;;;;9.64;99.31;98072.53;5087289;28;20054;-69
2023/10/13 13:56:00;;;;;;;0.30;0.30;;;;;;;9.61;100.00;98054.53;5086997;28;20115;-70
2023/10/13 13:58:25;;;;;;;0.30;0.30;;;;;;;9.73;100.00;98045.38;5087743;28;20032;-72
2023/10/13 14:00:50;;;;;;;1.55;1.45;;;;;;;9.70;99.83;98032.56;5087518;28;20038;-70
2023/10/13 14:03:31;;;;;;;0.20;0.20;;;;;;;9.69;100.00;98027.47;5069587;28;20453;-71
2023/10/13 14:06:01;;;;;;;0.30;0.30;;;;;;;9.88;99.92;98006.75;5087545;28;20024;-70
2023/10/13 14:08:27;;;;;;;0.30;0.30;;;;;;;9.75;100.00;97996.94;5087229;28;20253;-70
2023/10/13 14:13:50;;;;;;;0.30;0.30;;;;;;;9.93;100.00;97952.97;5087398;28;20024;-69
2023/10/13 14:16:17;;;;;;;0.28;0.28;;;;;;;10.09;100.00;97945.34;5087407;28;20026;-70
2023/10/13 14:18:47;;;;;;;0.20;0.20;;;;;;;10.04;100.00;97942.13;5069053;28;20522;-71
2023/10/13 14:21:19;;;;;;;0.30;0.30;;;;;;;10.20;100.00;97923.25;5068905;28;20452;-71
2023/10/13 14:23:48;;;;;;;0.30;0.30;;;;;;;10.51;98.79;97916.66;5069015;28;20029;-70
2023/10/13 14:26:20;;;;;;;0.40;0.40;;;;;;;10.22;100.00;97893.75;5086803;28;20075;-71
2023/10/13 14:29:00;;;;;;;0.20;0.20;;;;;;;10.37;100.00;97887.00;5087199;28;20021;-69
2023/10/13 14:31:28;;;;;;;0.20;0.20;;;;;;;10.34;100.00;97876.75;5087022;28;20039;-69
2023/10/13 14:33:54;;;;;;;0.30;0.30;;;;;;;10.38;100.00;97877.47;5086843;28;20091;-70
2023/10/13 14:36:22;;;;;;;0.22;0.22;;;;;;;10.42;100.00;97850.44;5086585;28;20099;-70
2023/10/13 14:38:50;;;;;;;0.30;0.30;;;;;;;10.60;99.75;97840.97;5068943;28;20024;-70
2023/10/13 14:41:17;;;;;;;0.30;0.30;;;;;;;10.50;100.00;97829.34;5086329;28;20032;-68
2023/10/13 14:43:47;;;;;;;0.30;0.30;;;;;;;10.72;100.00;97810.13;5086783;28;20021;-69
2023/10/13 14:46:14;;;;;;;0.30;0.30;;;;;;;10.88;99.01;97803.22;5070200;28;20040;-67
2023/10/13 14:48:40;;;;;;;0.30;0.30;;;;;;;10.70;100.00;97818.00;5066596;28;20100;-68
2023/10/13 14:51:16;;;;;;;0.30;0.30;;;;;;;10.61;100.00;97806.31;5066442;28;20020;-67
2023/10/13 14:53:46;;;;;;;0.30;0.30;;;;;;;10.72;100.00;97786.78;5066516;28;20477;-69
2023/10/13 14:56:12;;;;;;;0.30;0.30;;;;;;;10.72;100.00;97772.03;5066077;28;20025;-69
2023/10/13 14:58:44;;;;;;;0.30;0.30;;;;;;;10.87;100.00;97756.56;5066382;28;20078;-70
2023/10/13 15:01:16;;;;;;;;;;;;;;;11.01;100.00;97761.03;5066991;28;20094;-71
2023/10/13 15:03:47;;;;;;;0.40;0.40;;;;;;;11.21;100.00;97751.34;5048600;28;19944;-71
2023/10/13 15:06:28;;;;;;;0.20;0.20;;;;;;;11.17;100.00;97729.91;5065939;28;20025;-67
2023/10/13 15:08:55;;;;;;;0.30;0.30;;;;;;;11.13;100.00;97734.41;5066133;28;20097;-67
2023/10/13 15:11:26;;;;;;;0.30;0.30;;;;;;;11.20;100.00;97731.50;5065733;28;20101;-68